El Carril, Argentina
Current Conditions -  °F | °C
As of 3:20 PM on Monday 20 Oct 2014 (Local Time) from SASA Reporting Station
Overcast Overcast  
Wind Chill: 63°   Ceiling: 800
Heat Index: 63°   Visibility: 6mi
Dew Point: 57°   Wind: 6mph
Humidity: 82%   Direction: 50°NE
Pressure: 30.21"   Gusts: NA
Location:  25.03°S, 65.47°W
Report Text: SASA 201820Z 05005KT 9999 BKN008 OVC10017/14 Q1023 REDZ
Loading
Personal Weather Stations






























Interactive Weather Map
Tropical Storm Tracking
New forecast layout! Learn more

10-Day Weather Forecast

Advertisements
Track Severe Weather on mobile